sensor_id;sensor_type;location;lat;lon;timestamp;P1;durP1;ratioP1;P2;durP2;ratioP2
64619;SDS011;51029;51.058;13.826;2022-11-20T00:01:09;27.03;;;18.77;;
64619;SDS011;51029;51.058;13.826;2022-11-20T00:03:38;28.03;;;17.93;;
64619;SDS011;51029;51.058;13.826;2022-11-20T00:06:06;30.60;;;18.77;;
64619;SDS011;51029;51.058;13.826;2022-11-20T00:08:34;31.93;;;18.00;;
64619;SDS011;51029;51.058;13.826;2022-11-20T00:11:09;29.30;;;17.83;;
64619;SDS011;51029;51.058;13.826;2022-11-20T00:13:37;29.90;;;18.40;;
64619;SDS011;51029;51.058;13.826;2022-11-20T00:16:03;30.33;;;18.93;;
64619;SDS011;51029;51.058;13.826;2022-11-20T00:18:32;28.63;;;19.03;;
64619;SDS011;51029;51.058;13.826;2022-11-20T00:21:05;27.53;;;18.03;;
64619;SDS011;51029;51.058;13.826;2022-11-20T00:23:32;28.57;;;18.57;;
64619;SDS011;51029;51.058;13.826;2022-11-20T00:26:04;30.03;;;18.50;;
64619;SDS011;51029;51.058;13.826;2022-11-20T00:28:31;29.57;;;18.43;;
64619;SDS011;51029;51.058;13.826;2022-11-20T00:31:04;27.03;;;16.90;;
64619;SDS011;51029;51.058;13.826;2022-11-20T00:33:31;29.23;;;18.13;;
64619;SDS011;51029;51.058;13.826;2022-11-20T00:36:00;28.30;;;17.70;;
64619;SDS011;51029;51.058;13.826;2022-11-20T00:38:27;27.17;;;17.87;;
64619;SDS011;51029;51.058;13.826;2022-11-20T00:40:56;27.20;;;17.03;;
64619;SDS011;51029;51.058;13.826;2022-11-20T00:43:23;27.33;;;17.90;;
64619;SDS011;51029;51.058;13.826;2022-11-20T00:45:49;27.60;;;18.37;;
64619;SDS011;51029;51.058;13.826;2022-11-20T00:48:15;28.10;;;18.83;;
64619;SDS011;51029;51.058;13.826;2022-11-20T00:50:41;30.07;;;18.97;;
64619;SDS011;51029;51.058;13.826;2022-11-20T00:53:07;28.13;;;18.53;;
64619;SDS011;51029;51.058;13.826;2022-11-20T00:55:32;32.90;;;18.43;;
64619;SDS011;51029;51.058;13.826;2022-11-20T00:57:58;29.57;;;18.00;;
64619;SDS011;51029;51.058;13.826;2022-11-20T01:00:23;29.17;;;18.17;;
64619;SDS011;51029;51.058;13.826;2022-11-20T01:02:49;30.20;;;17.80;;
64619;SDS011;51029;51.058;13.826;2022-11-20T01:05:14;29.07;;;17.50;;
64619;SDS011;51029;51.058;13.826;2022-11-20T01:07:40;26.80;;;16.53;;
64619;SDS011;51029;51.058;13.826;2022-11-20T01:10:06;27.60;;;17.07;;
64619;SDS011;51029;51.058;13.826;2022-11-20T01:12:31;28.20;;;16.80;;
64619;SDS011;51029;51.058;13.826;2022-11-20T01:14:57;27.77;;;17.33;;
64619;SDS011;51029;51.058;13.826;2022-11-20T01:17:22;27.47;;;16.67;;
64619;SDS011;51029;51.058;13.826;2022-11-20T01:19:49;29.40;;;17.67;;
64619;SDS011;51029;51.058;13.826;2022-11-20T01:22:15;31.13;;;18.33;;
64619;SDS011;51029;51.058;13.826;2022-11-20T01:24:41;29.80;;;16.83;;
64619;SDS011;51029;51.058;13.826;2022-11-20T01:27:07;26.63;;;16.50;;
64619;SDS011;51029;51.058;13.826;2022-11-20T01:29:32;28.27;;;16.77;;
64619;SDS011;51029;51.058;13.826;2022-11-20T01:31:58;30.00;;;17.63;;
64619;SDS011;51029;51.058;13.826;2022-11-20T01:34:23;26.67;;;16.47;;
64619;SDS011;51029;51.058;13.826;2022-11-20T01:36:50;26.43;;;16.63;;
64619;SDS011;51029;51.058;13.826;2022-11-20T01:39:17;25.97;;;16.00;;
64619;SDS011;51029;51.058;13.826;2022-11-20T01:41:45;29.10;;;15.77;;
64619;SDS011;51029;51.058;13.826;2022-11-20T01:44:42;27.57;;;17.00;;
64619;SDS011;51029;51.058;13.826;2022-11-20T01:47:13;26.83;;;16.20;;
64619;SDS011;51029;51.058;13.826;2022-11-20T01:49:42;27.80;;;16.93;;
64619;SDS011;51029;51.058;13.826;2022-11-20T01:52:20;27.00;;;16.20;;
64619;SDS011;51029;51.058;13.826;2022-11-20T01:54:55;30.07;;;17.23;;
64619;SDS011;51029;51.058;13.826;2022-11-20T01:57:42;25.93;;;16.67;;
64619;SDS011;51029;51.058;13.826;2022-11-20T02:00:12;28.60;;;16.90;;
64619;SDS011;51029;51.058;13.826;2022-11-20T02:02:43;26.77;;;16.63;;
64619;SDS011;51029;51.058;13.826;2022-11-20T02:05:50;28.73;;;17.23;;
64619;SDS011;51029;51.058;13.826;2022-11-20T02:08:23;29.03;;;17.80;;
64619;SDS011;51029;51.058;13.826;2022-11-20T02:10:48;29.70;;;17.47;;
64619;SDS011;51029;51.058;13.826;2022-11-20T02:13:14;27.20;;;17.67;;
64619;SDS011;51029;51.058;13.826;2022-11-20T02:15:59;28.00;;;17.33;;
64619;SDS011;51029;51.058;13.826;2022-11-20T02:18:26;28.60;;;17.67;;
64619;SDS011;51029;51.058;13.826;2022-11-20T02:20:53;30.37;;;18.90;;
64619;SDS011;51029;51.058;13.826;2022-11-20T02:26:01;28.07;;;17.50;;
64619;SDS011;51029;51.058;13.826;2022-11-20T02:28:30;27.43;;;16.50;;
64619;SDS011;51029;51.058;13.826;2022-11-20T02:30:56;30.47;;;17.60;;
64619;SDS011;51029;51.058;13.826;2022-11-20T02:33:22;28.87;;;17.83;;
64619;SDS011;51029;51.058;13.826;2022-11-20T02:35:47;28.83;;;16.67;;
64619;SDS011;51029;51.058;13.826;2022-11-20T02:38:13;34.17;;;18.37;;
64619;SDS011;51029;51.058;13.826;2022-11-20T02:40:40;27.33;;;17.10;;
64619;SDS011;51029;51.058;13.826;2022-11-20T02:43:06;28.53;;;15.53;;
64619;SDS011;51029;51.058;13.826;2022-11-20T02:45:31;29.83;;;16.93;;
64619;SDS011;51029;51.058;13.826;2022-11-20T02:47:57;27.77;;;17.00;;
64619;SDS011;51029;51.058;13.826;2022-11-20T02:50:23;31.93;;;17.77;;
64619;SDS011;51029;51.058;13.826;2022-11-20T02:52:48;29.57;;;17.40;;
64619;SDS011;51029;51.058;13.826;2022-11-20T02:55:14;29.07;;;15.83;;
64619;SDS011;51029;51.058;13.826;2022-11-20T02:57:40;30.77;;;16.87;;
64619;SDS011;51029;51.058;13.826;2022-11-20T03:00:05;34.60;;;17.37;;
64619;SDS011;51029;51.058;13.826;2022-11-20T03:02:32;31.57;;;17.43;;
64619;SDS011;51029;51.058;13.826;2022-11-20T03:04:57;28.60;;;17.30;;
64619;SDS011;51029;51.058;13.826;2022-11-20T03:07:23;27.37;;;17.03;;
64619;SDS011;51029;51.058;13.826;2022-11-20T03:09:49;29.93;;;16.53;;
64619;SDS011;51029;51.058;13.826;2022-11-20T03:12:14;30.20;;;16.80;;
64619;SDS011;51029;51.058;13.826;2022-11-20T03:14:40;35.33;;;17.90;;
64619;SDS011;51029;51.058;13.826;2022-11-20T03:17:05;34.90;;;18.13;;
64619;SDS011;51029;51.058;13.826;2022-11-20T03:19:31;30.27;;;18.10;;
64619;SDS011;51029;51.058;13.826;2022-11-20T03:21:56;30.40;;;16.47;;
64619;SDS011;51029;51.058;13.826;2022-11-20T03:24:22;28.70;;;17.50;;
64619;SDS011;51029;51.058;13.826;2022-11-20T03:26:48;28.10;;;17.07;;
64619;SDS011;51029;51.058;13.826;2022-11-20T03:29:13;29.73;;;17.53;;
64619;SDS011;51029;51.058;13.826;2022-11-20T03:31:39;30.07;;;17.23;;
64619;SDS011;51029;51.058;13.826;2022-11-20T03:34:06;26.07;;;16.43;;
64619;SDS011;51029;51.058;13.826;2022-11-20T03:36:33;29.37;;;16.50;;
64619;SDS011;51029;51.058;13.826;2022-11-20T03:38:59;29.30;;;16.50;;
64619;SDS011;51029;51.058;13.826;2022-11-20T03:41:26;28.37;;;16.63;;
64619;SDS011;51029;51.058;13.826;2022-11-20T03:44:03;28.43;;;16.07;;
64619;SDS011;51029;51.058;13.826;2022-11-20T03:46:30;28.43;;;16.73;;
64619;SDS011;51029;51.058;13.826;2022-11-20T03:48:56;31.43;;;17.20;;
64619;SDS011;51029;51.058;13.826;2022-11-20T03:51:23;27.30;;;16.60;;
64619;SDS011;51029;51.058;13.826;2022-11-20T03:53:54;29.10;;;16.43;;
64619;SDS011;51029;51.058;13.826;2022-11-20T03:56:23;29.27;;;16.83;;
64619;SDS011;51029;51.058;13.826;2022-11-20T03:58:50;27.93;;;16.20;;
64619;SDS011;51029;51.058;13.826;2022-11-20T04:01:18;28.37;;;16.67;;
64619;SDS011;51029;51.058;13.826;2022-11-20T04:03:49;31.10;;;16.20;;
64619;SDS011;51029;51.058;13.826;2022-11-20T04:06:18;26.20;;;15.53;;
64619;SDS011;51029;51.058;13.826;2022-11-20T04:08:45;27.50;;;15.70;;
64619;SDS011;51029;51.058;13.826;2022-11-20T04:11:18;28.10;;;16.53;;
64619;SDS011;51029;51.058;13.826;2022-11-20T04:13:47;29.50;;;17.00;;
64619;SDS011;51029;51.058;13.826;2022-11-20T04:16:14;27.43;;;15.83;;
64619;SDS011;51029;51.058;13.826;2022-11-20T04:18:40;27.13;;;16.33;;
64619;SDS011;51029;51.058;13.826;2022-11-20T04:21:06;28.07;;;16.40;;
64619;SDS011;51029;51.058;13.826;2022-11-20T04:23:32;27.33;;;16.10;;
64619;SDS011;51029;51.058;13.826;2022-11-20T04:26:05;29.73;;;16.30;;
64619;SDS011;51029;51.058;13.826;2022-11-20T04:28:35;30.10;;;16.10;;
64619;SDS011;51029;51.058;13.826;2022-11-20T04:31:18;28.83;;;16.43;;
64619;SDS011;51029;51.058;13.826;2022-11-20T04:33:51;27.70;;;16.60;;
64619;SDS011;51029;51.058;13.826;2022-11-20T04:36:22;27.73;;;16.47;;
64619;SDS011;51029;51.058;13.826;2022-11-20T04:38:50;29.43;;;15.30;;
64619;SDS011;51029;51.058;13.826;2022-11-20T04:41:19;31.03;;;17.03;;
64619;SDS011;51029;51.058;13.826;2022-11-20T04:43:46;26.10;;;16.07;;
64619;SDS011;51029;51.058;13.826;2022-11-20T04:46:18;27.47;;;16.07;;
64619;SDS011;51029;51.058;13.826;2022-11-20T04:48:45;28.47;;;16.93;;
64619;SDS011;51029;51.058;13.826;2022-11-20T04:51:12;29.97;;;17.67;;
64619;SDS011;51029;51.058;13.826;2022-11-20T04:53:37;25.57;;;15.53;;
64619;SDS011;51029;51.058;13.826;2022-11-20T04:56:04;26.13;;;15.97;;
64619;SDS011;51029;51.058;13.826;2022-11-20T04:58:32;29.67;;;16.93;;
64619;SDS011;51029;51.058;13.826;2022-11-20T05:01:11;28.77;;;17.37;;
64619;SDS011;51029;51.058;13.826;2022-11-20T05:03:39;31.03;;;17.97;;
64619;SDS011;51029;51.058;13.826;2022-11-20T05:06:05;31.73;;;17.67;;
64619;SDS011;51029;51.058;13.826;2022-11-20T05:08:32;28.20;;;17.27;;
64619;SDS011;51029;51.058;13.826;2022-11-20T05:11:02;31.63;;;17.87;;
64619;SDS011;51029;51.058;13.826;2022-11-20T05:13:29;31.80;;;18.10;;
64619;SDS011;51029;51.058;13.826;2022-11-20T05:15:55;29.07;;;17.93;;
64619;SDS011;51029;51.058;13.826;2022-11-20T05:18:25;27.67;;;16.47;;
64619;SDS011;51029;51.058;13.826;2022-11-20T05:20:54;32.03;;;17.93;;
64619;SDS011;51029;51.058;13.826;2022-11-20T05:23:21;28.97;;;17.23;;
64619;SDS011;51029;51.058;13.826;2022-11-20T05:25:46;31.33;;;17.93;;
64619;SDS011;51029;51.058;13.826;2022-11-20T05:28:12;32.37;;;18.20;;
64619;SDS011;51029;51.058;13.826;2022-11-20T05:30:38;28.77;;;16.93;;
64619;SDS011;51029;51.058;13.826;2022-11-20T05:33:03;31.80;;;17.93;;
64619;SDS011;51029;51.058;13.826;2022-11-20T05:35:29;32.70;;;17.93;;
64619;SDS011;51029;51.058;13.826;2022-11-20T05:37:54;28.07;;;16.77;;
64619;SDS011;51029;51.058;13.826;2022-11-20T05:40:20;29.70;;;17.50;;
64619;SDS011;51029;51.058;13.826;2022-11-20T05:42:45;29.53;;;17.47;;
64619;SDS011;51029;51.058;13.826;2022-11-20T05:45:11;27.70;;;17.50;;
64619;SDS011;51029;51.058;13.826;2022-11-20T05:47:36;29.83;;;17.37;;
64619;SDS011;51029;51.058;13.826;2022-11-20T05:50:02;29.60;;;18.30;;
64619;SDS011;51029;51.058;13.826;2022-11-20T05:52:28;29.77;;;18.00;;
64619;SDS011;51029;51.058;13.826;2022-11-20T05:54:54;29.10;;;16.93;;
64619;SDS011;51029;51.058;13.826;2022-11-20T05:57:20;28.40;;;16.43;;
64619;SDS011;51029;51.058;13.826;2022-11-20T05:59:45;28.47;;;17.67;;
64619;SDS011;51029;51.058;13.826;2022-11-20T06:02:11;28.40;;;16.57;;
64619;SDS011;51029;51.058;13.826;2022-11-20T06:04:37;29.00;;;16.87;;
64619;SDS011;51029;51.058;13.826;2022-11-20T06:07:04;28.93;;;17.17;;
64619;SDS011;51029;51.058;13.826;2022-11-20T06:09:30;29.17;;;17.37;;
64619;SDS011;51029;51.058;13.826;2022-11-20T06:11:55;29.93;;;16.97;;
64619;SDS011;51029;51.058;13.826;2022-11-20T06:14:21;29.07;;;17.67;;
64619;SDS011;51029;51.058;13.826;2022-11-20T06:16:46;32.20;;;18.47;;
64619;SDS011;51029;51.058;13.826;2022-11-20T06:19:12;32.73;;;17.27;;
64619;SDS011;51029;51.058;13.826;2022-11-20T06:21:37;28.73;;;16.70;;
64619;SDS011;51029;51.058;13.826;2022-11-20T06:24:03;30.13;;;16.33;;
64619;SDS011;51029;51.058;13.826;2022-11-20T06:26:29;28.03;;;16.57;;
64619;SDS011;51029;51.058;13.826;2022-11-20T06:28:55;32.53;;;18.17;;
64619;SDS011;51029;51.058;13.826;2022-11-20T06:31:21;30.40;;;17.97;;
64619;SDS011;51029;51.058;13.826;2022-11-20T06:33:49;30.87;;;16.90;;
64619;SDS011;51029;51.058;13.826;2022-11-20T06:36:16;30.40;;;17.17;;
64619;SDS011;51029;51.058;13.826;2022-11-20T06:38:43;32.27;;;17.93;;
64619;SDS011;51029;51.058;13.826;2022-11-20T06:41:13;30.43;;;17.87;;
64619;SDS011;51029;51.058;13.826;2022-11-20T06:43:40;30.40;;;17.37;;
64619;SDS011;51029;51.058;13.826;2022-11-20T06:46:06;31.80;;;17.80;;
64619;SDS011;51029;51.058;13.826;2022-11-20T06:48:32;28.80;;;17.63;;
64619;SDS011;51029;51.058;13.826;2022-11-20T06:50:57;30.77;;;18.20;;
64619;SDS011;51029;51.058;13.826;2022-11-20T06:53:23;31.80;;;19.17;;
64619;SDS011;51029;51.058;13.826;2022-11-20T06:55:50;31.93;;;18.43;;
64619;SDS011;51029;51.058;13.826;2022-11-20T06:58:16;30.23;;;18.10;;
64619;SDS011;51029;51.058;13.826;2022-11-20T07:00:42;30.13;;;18.63;;
64619;SDS011;51029;51.058;13.826;2022-11-20T07:03:09;31.60;;;18.67;;
64619;SDS011;51029;51.058;13.826;2022-11-20T07:05:36;33.73;;;19.40;;
64619;SDS011;51029;51.058;13.826;2022-11-20T07:08:02;34.47;;;18.57;;
64619;SDS011;51029;51.058;13.826;2022-11-20T07:10:28;35.63;;;19.97;;
64619;SDS011;51029;51.058;13.826;2022-11-20T07:12:54;33.77;;;19.53;;
64619;SDS011;51029;51.058;13.826;2022-11-20T07:15:20;30.43;;;19.17;;
64619;SDS011;51029;51.058;13.826;2022-11-20T07:17:47;38.43;;;21.23;;
64619;SDS011;51029;51.058;13.826;2022-11-20T07:20:13;36.27;;;20.93;;
64619;SDS011;51029;51.058;13.826;2022-11-20T07:22:39;39.90;;;21.90;;
64619;SDS011;51029;51.058;13.826;2022-11-20T07:25:05;35.23;;;19.80;;
64619;SDS011;51029;51.058;13.826;2022-11-20T07:27:32;35.70;;;20.27;;
64619;SDS011;51029;51.058;13.826;2022-11-20T07:29:57;39.87;;;21.17;;
64619;SDS011;51029;51.058;13.826;2022-11-20T07:32:23;36.03;;;20.13;;
64619;SDS011;51029;51.058;13.826;2022-11-20T07:34:49;36.67;;;20.47;;
64619;SDS011;51029;51.058;13.826;2022-11-20T07:37:14;34.70;;;20.33;;
64619;SDS011;51029;51.058;13.826;2022-11-20T07:39:41;36.37;;;20.60;;
64619;SDS011;51029;51.058;13.826;2022-11-20T07:42:07;35.40;;;22.00;;
64619;SDS011;51029;51.058;13.826;2022-11-20T07:44:33;35.77;;;20.87;;
64619;SDS011;51029;51.058;13.826;2022-11-20T07:46:59;37.27;;;22.77;;
64619;SDS011;51029;51.058;13.826;2022-11-20T07:49:25;36.37;;;20.70;;
64619;SDS011;51029;51.058;13.826;2022-11-20T07:51:50;35.57;;;21.27;;
64619;SDS011;51029;51.058;13.826;2022-11-20T07:54:18;34.80;;;21.00;;
64619;SDS011;51029;51.058;13.826;2022-11-20T07:56:45;36.90;;;21.70;;
64619;SDS011;51029;51.058;13.826;2022-11-20T07:59:11;39.90;;;22.53;;
64619;SDS011;51029;51.058;13.826;2022-11-20T08:01:37;36.10;;;21.67;;
64619;SDS011;51029;51.058;13.826;2022-11-20T08:04:03;36.87;;;22.67;;
64619;SDS011;51029;51.058;13.826;2022-11-20T08:06:28;39.50;;;25.63;;
64619;SDS011;51029;51.058;13.826;2022-11-20T08:08:54;40.30;;;26.20;;
64619;SDS011;51029;51.058;13.826;2022-11-20T08:11:20;35.57;;;21.47;;
64619;SDS011;51029;51.058;13.826;2022-11-20T08:14:04;40.40;;;21.40;;
64619;SDS011;51029;51.058;13.826;2022-11-20T08:16:48;36.27;;;20.63;;
64619;SDS011;51029;51.058;13.826;2022-11-20T08:19:15;37.60;;;22.00;;
64619;SDS011;51029;51.058;13.826;2022-11-20T08:21:42;37.17;;;22.27;;
64619;SDS011;51029;51.058;13.826;2022-11-20T08:24:08;38.17;;;22.73;;
64619;SDS011;51029;51.058;13.826;2022-11-20T08:26:35;36.60;;;22.17;;
64619;SDS011;51029;51.058;13.826;2022-11-20T08:29:02;39.60;;;22.97;;
64619;SDS011;51029;51.058;13.826;2022-11-20T08:31:29;35.03;;;21.23;;
64619;SDS011;51029;51.058;13.826;2022-11-20T08:33:55;37.70;;;22.90;;
64619;SDS011;51029;51.058;13.826;2022-11-20T08:36:21;40.20;;;22.90;;
64619;SDS011;51029;51.058;13.826;2022-11-20T08:38:52;53.77;;;33.53;;
64619;SDS011;51029;51.058;13.826;2022-11-20T08:41:19;45.90;;;29.73;;
64619;SDS011;51029;51.058;13.826;2022-11-20T08:43:58;47.87;;;34.27;;
64619;SDS011;51029;51.058;13.826;2022-11-20T08:46:26;47.67;;;35.27;;
64619;SDS011;51029;51.058;13.826;2022-11-20T08:49:05;47.93;;;35.03;;
64619;SDS011;51029;51.058;13.826;2022-11-20T08:51:33;37.00;;;27.20;;
64619;SDS011;51029;51.058;13.826;2022-11-20T08:53:59;40.90;;;27.60;;
64619;SDS011;51029;51.058;13.826;2022-11-20T08:56:25;33.83;;;24.80;;
64619;SDS011;51029;51.058;13.826;2022-11-20T08:58:51;36.80;;;25.43;;
64619;SDS011;51029;51.058;13.826;2022-11-20T09:01:17;37.10;;;26.07;;
64619;SDS011;51029;51.058;13.826;2022-11-20T09:03:43;35.40;;;24.87;;
64619;SDS011;51029;51.058;13.826;2022-11-20T09:06:09;34.10;;;24.80;;
64619;SDS011;51029;51.058;13.826;2022-11-20T09:08:34;30.70;;;23.13;;
64619;SDS011;51029;51.058;13.826;2022-11-20T09:11:01;31.67;;;23.57;;
64619;SDS011;51029;51.058;13.826;2022-11-20T09:13:27;31.07;;;23.83;;
64619;SDS011;51029;51.058;13.826;2022-11-20T09:15:57;32.53;;;23.77;;
64619;SDS011;51029;51.058;13.826;2022-11-20T09:18:27;35.93;;;28.03;;
64619;SDS011;51029;51.058;13.826;2022-11-20T09:20:57;36.60;;;26.47;;
64619;SDS011;51029;51.058;13.826;2022-11-20T09:23:26;30.03;;;23.10;;
64619;SDS011;51029;51.058;13.826;2022-11-20T09:25:55;27.77;;;21.07;;
64619;SDS011;51029;51.058;13.826;2022-11-20T09:28:24;25.60;;;20.00;;
64619;SDS011;51029;51.058;13.826;2022-11-20T09:30:50;22.23;;;19.03;;
64619;SDS011;51029;51.058;13.826;2022-11-20T09:33:16;23.50;;;18.40;;
64619;SDS011;51029;51.058;13.826;2022-11-20T09:35:42;24.33;;;19.33;;
64619;SDS011;51029;51.058;13.826;2022-11-20T09:38:08;20.03;;;16.50;;
64619;SDS011;51029;51.058;13.826;2022-11-20T09:40:35;20.70;;;17.37;;
64619;SDS011;51029;51.058;13.826;2022-11-20T09:43:11;20.47;;;16.87;;
64619;SDS011;51029;51.058;13.826;2022-11-20T09:45:56;27.00;;;18.97;;
64619;SDS011;51029;51.058;13.826;2022-11-20T09:54:28;33.47;;;24.70;;
64619;SDS011;51029;51.058;13.826;2022-11-20T09:57:08;27.60;;;21.90;;
64619;SDS011;51029;51.058;13.826;2022-11-20T09:59:41;25.27;;;20.23;;
64619;SDS011;51029;51.058;13.826;2022-11-20T10:17:53;20.80;;;16.90;;
64619;SDS011;51029;51.058;13.826;2022-11-20T10:23:03;13.53;;;12.13;;
64619;SDS011;51029;51.058;13.826;2022-11-20T10:31:09;13.27;;;11.50;;
64619;SDS011;51029;51.058;13.826;2022-11-20T10:33:39;11.10;;;10.00;;
64619;SDS011;51029;51.058;13.826;2022-11-20T10:36:30;14.27;;;12.67;;
64619;SDS011;51029;51.058;13.826;2022-11-20T10:39:06;14.00;;;11.77;;
64619;SDS011;51029;51.058;13.826;2022-11-20T10:41:41;13.90;;;12.10;;
64619;SDS011;51029;51.058;13.826;2022-11-20T10:44:12;13.03;;;11.40;;
64619;SDS011;51029;51.058;13.826;2022-11-20T10:47:01;13.73;;;11.87;;
64619;SDS011;51029;51.058;13.826;2022-11-20T10:49:26;14.37;;;12.90;;
64619;SDS011;51029;51.058;13.826;2022-11-20T10:57:35;14.87;;;12.90;;
64619;SDS011;51029;51.058;13.826;2022-11-20T11:00:33;15.20;;;12.20;;
64619;SDS011;51029;51.058;13.826;2022-11-20T11:02:59;13.77;;;11.87;;
64619;SDS011;51029;51.058;13.826;2022-11-20T11:08:02;15.43;;;13.77;;
64619;SDS011;51029;51.058;13.826;2022-11-20T11:13:29;22.43;;;18.97;;
64619;SDS011;51029;51.058;13.826;2022-11-20T11:15:55;14.87;;;12.87;;
64619;SDS011;51029;51.058;13.826;2022-11-20T11:18:28;14.30;;;12.80;;
64619;SDS011;51029;51.058;13.826;2022-11-20T11:20:59;16.23;;;13.13;;
64619;SDS011;51029;51.058;13.826;2022-11-20T11:23:38;16.37;;;14.00;;
64619;SDS011;51029;51.058;13.826;2022-11-20T11:26:06;15.37;;;11.60;;
64619;SDS011;51029;51.058;13.826;2022-11-20T11:28:52;14.50;;;11.90;;
64619;SDS011;51029;51.058;13.826;2022-11-20T11:31:25;13.17;;;10.97;;
64619;SDS011;51029;51.058;13.826;2022-11-20T11:34:10;13.77;;;11.10;;
64619;SDS011;51029;51.058;13.826;2022-11-20T11:36:38;14.53;;;12.37;;
64619;SDS011;51029;51.058;13.826;2022-11-20T11:39:05;11.17;;;10.03;;
64619;SDS011;51029;51.058;13.826;2022-11-20T11:41:38;11.97;;;9.87;;
64619;SDS011;51029;51.058;13.826;2022-11-20T11:44:17;12.47;;;9.97;;
64619;SDS011;51029;51.058;13.826;2022-11-20T11:47:03;13.10;;;10.63;;
64619;SDS011;51029;51.058;13.826;2022-11-20T11:49:35;14.13;;;10.90;;
64619;SDS011;51029;51.058;13.826;2022-11-20T12:00:15;13.37;;;10.90;;
64619;SDS011;51029;51.058;13.826;2022-11-20T12:08:02;12.07;;;8.80;;
64619;SDS011;51029;51.058;13.826;2022-11-20T12:16:30;9.47;;;8.27;;
64619;SDS011;51029;51.058;13.826;2022-11-20T12:19:01;10.17;;;8.43;;
64619;SDS011;51029;51.058;13.826;2022-11-20T12:21:40;10.90;;;8.33;;
64619;SDS011;51029;51.058;13.826;2022-11-20T12:44:19;14.00;;;9.83;;
64619;SDS011;51029;51.058;13.826;2022-11-20T12:50:46;11.87;;;9.03;;
64619;SDS011;51029;51.058;13.826;2022-11-20T12:53:33;12.30;;;9.53;;
64619;SDS011;51029;51.058;13.826;2022-11-20T13:08:12;12.40;;;9.07;;
64619;SDS011;51029;51.058;13.826;2022-11-20T13:13:35;11.70;;;9.27;;
64619;SDS011;51029;51.058;13.826;2022-11-20T13:16:22;12.13;;;9.20;;
64619;SDS011;51029;51.058;13.826;2022-11-20T13:19:11;12.23;;;9.17;;
64619;SDS011;51029;51.058;13.826;2022-11-20T13:21:43;10.20;;;8.70;;
64619;SDS011;51029;51.058;13.826;2022-11-20T13:26:45;11.57;;;8.83;;
64619;SDS011;51029;51.058;13.826;2022-11-20T13:29:12;12.53;;;8.87;;
64619;SDS011;51029;51.058;13.826;2022-11-20T13:31:44;12.43;;;10.07;;
64619;SDS011;51029;51.058;13.826;2022-11-20T13:34:22;14.27;;;9.93;;
64619;SDS011;51029;51.058;13.826;2022-11-20T13:36:51;13.00;;;9.13;;
64619;SDS011;51029;51.058;13.826;2022-11-20T13:39:25;11.67;;;8.63;;
64619;SDS011;51029;51.058;13.826;2022-11-20T13:42:03;12.40;;;9.37;;
64619;SDS011;51029;51.058;13.826;2022-11-20T13:44:53;8.93;;;7.10;;
64619;SDS011;51029;51.058;13.826;2022-11-20T13:47:24;13.67;;;8.83;;
64619;SDS011;51029;51.058;13.826;2022-11-20T13:49:54;13.13;;;8.57;;
64619;SDS011;51029;51.058;13.826;2022-11-20T13:55:31;11.23;;;7.57;;
64619;SDS011;51029;51.058;13.826;2022-11-20T13:58:40;11.80;;;7.90;;
64619;SDS011;51029;51.058;13.826;2022-11-20T14:01:24;10.97;;;8.00;;
64619;SDS011;51029;51.058;13.826;2022-11-20T14:03:56;10.63;;;8.20;;
64619;SDS011;51029;51.058;13.826;2022-11-20T14:06:25;12.47;;;9.03;;
64619;SDS011;51029;51.058;13.826;2022-11-20T14:08:56;13.80;;;9.43;;
64619;SDS011;51029;51.058;13.826;2022-11-20T14:16:24;9.80;;;7.70;;
64619;SDS011;51029;51.058;13.826;2022-11-20T14:18:51;11.03;;;8.47;;
64619;SDS011;51029;51.058;13.826;2022-11-20T14:21:21;13.90;;;8.67;;
64619;SDS011;51029;51.058;13.826;2022-11-20T14:23:52;10.73;;;9.13;;
64619;SDS011;51029;51.058;13.826;2022-11-20T14:26:19;10.30;;;7.77;;
64619;SDS011;51029;51.058;13.826;2022-11-20T14:28:47;10.27;;;8.47;;
64619;SDS011;51029;51.058;13.826;2022-11-20T14:31:22;11.63;;;8.87;;
64619;SDS011;51029;51.058;13.826;2022-11-20T14:33:50;10.10;;;8.53;;
64619;SDS011;51029;51.058;13.826;2022-11-20T14:36:18;11.13;;;8.40;;
64619;SDS011;51029;51.058;13.826;2022-11-20T14:38:49;10.67;;;8.87;;
64619;SDS011;51029;51.058;13.826;2022-11-20T14:41:22;12.53;;;9.30;;
64619;SDS011;51029;51.058;13.826;2022-11-20T14:43:57;12.13;;;8.63;;
64619;SDS011;51029;51.058;13.826;2022-11-20T14:46:24;13.03;;;9.67;;
64619;SDS011;51029;51.058;13.826;2022-11-20T14:48:51;14.83;;;10.70;;
64619;SDS011;51029;51.058;13.826;2022-11-20T14:51:57;14.53;;;11.00;;
64619;SDS011;51029;51.058;13.826;2022-11-20T14:54:22;13.07;;;9.67;;
64619;SDS011;51029;51.058;13.826;2022-11-20T14:57:01;13.13;;;9.70;;
64619;SDS011;51029;51.058;13.826;2022-11-20T14:59:29;15.07;;;10.13;;
64619;SDS011;51029;51.058;13.826;2022-11-20T15:04:22;11.73;;;9.63;;
64619;SDS011;51029;51.058;13.826;2022-11-20T15:06:52;14.57;;;10.13;;
64619;SDS011;51029;51.058;13.826;2022-11-20T15:09:19;14.63;;;11.10;;
64619;SDS011;51029;51.058;13.826;2022-11-20T15:11:58;13.43;;;10.10;;
64619;SDS011;51029;51.058;13.826;2022-11-20T15:14:26;15.80;;;10.67;;
64619;SDS011;51029;51.058;13.826;2022-11-20T15:16:53;12.60;;;10.00;;
64619;SDS011;51029;51.058;13.826;2022-11-20T15:19:23;12.73;;;10.00;;
64619;SDS011;51029;51.058;13.826;2022-11-20T15:21:50;15.17;;;10.50;;
64619;SDS011;51029;51.058;13.826;2022-11-20T15:24:16;13.67;;;11.50;;
64619;SDS011;51029;51.058;13.826;2022-11-20T15:26:42;14.07;;;10.87;;
64619;SDS011;51029;51.058;13.826;2022-11-20T15:29:08;12.90;;;9.97;;
64619;SDS011;51029;51.058;13.826;2022-11-20T15:31:36;14.77;;;10.73;;
64619;SDS011;51029;51.058;13.826;2022-11-20T15:34:02;14.60;;;11.90;;
64619;SDS011;51029;51.058;13.826;2022-11-20T15:36:30;42.87;;;25.90;;
64619;SDS011;51029;51.058;13.826;2022-11-20T15:38:55;23.13;;;14.90;;
64619;SDS011;51029;51.058;13.826;2022-11-20T15:41:21;19.70;;;12.83;;
64619;SDS011;51029;51.058;13.826;2022-11-20T15:43:46;18.07;;;12.00;;
64619;SDS011;51029;51.058;13.826;2022-11-20T15:46:16;15.00;;;11.00;;
64619;SDS011;51029;51.058;13.826;2022-11-20T15:48:53;15.33;;;10.93;;
64619;SDS011;51029;51.058;13.826;2022-11-20T15:51:27;14.83;;;10.93;;
64619;SDS011;51029;51.058;13.826;2022-11-20T15:53:56;15.90;;;11.67;;
64619;SDS011;51029;51.058;13.826;2022-11-20T15:56:21;16.27;;;11.50;;
64619;SDS011;51029;51.058;13.826;2022-11-20T15:58:47;16.00;;;11.13;;
64619;SDS011;51029;51.058;13.826;2022-11-20T16:01:14;16.30;;;11.10;;
64619;SDS011;51029;51.058;13.826;2022-11-20T16:03:41;15.33;;;11.40;;
64619;SDS011;51029;51.058;13.826;2022-11-20T16:06:07;18.47;;;12.93;;
64619;SDS011;51029;51.058;13.826;2022-11-20T16:08:33;17.60;;;12.93;;
64619;SDS011;51029;51.058;13.826;2022-11-20T16:10:58;16.87;;;13.13;;
64619;SDS011;51029;51.058;13.826;2022-11-20T16:13:24;17.40;;;12.03;;
64619;SDS011;51029;51.058;13.826;2022-11-20T16:19:11;15.40;;;12.07;;
64619;SDS011;51029;51.058;13.826;2022-11-20T16:21:37;17.97;;;12.70;;